sensor_id;sensor_type;location;lat;lon;timestamp;temperature;humidity
20560;DHT22;10438;51.454;6.718;2023-08-31T00:00:02;12.50;99.90
20560;DHT22;10438;51.454;6.718;2023-08-31T00:02:29;12.40;99.90
20560;DHT22;10438;51.454;6.718;2023-08-31T00:04:55;12.40;99.90
20560;DHT22;10438;51.454;6.718;2023-08-31T00:07:21;12.30;99.90
20560;DHT22;10438;51.454;6.718;2023-08-31T00:09:47;12.30;99.90
20560;DHT22;10438;51.454;6.718;2023-08-31T00:12:13;12.30;99.90
20560;DHT22;10438;51.454;6.718;2023-08-31T00:14:38;12.20;99.90
20560;DHT22;10438;51.454;6.718;2023-08-31T00:17:04;12.20;99.90
20560;DHT22;10438;51.454;6.718;2023-08-31T00:19:30;12.20;99.90
20560;DHT22;10438;51.454;6.718;2023-08-31T00:21:56;12.20;99.90
20560;DHT22;10438;51.454;6.718;2023-08-31T00:24:21;12.10;99.90
20560;DHT22;10438;51.454;6.718;2023-08-31T00:26:48;12.10;99.90
20560;DHT22;10438;51.454;6.718;2023-08-31T00:29:16;12.10;99.90
20560;DHT22;10438;51.454;6.718;2023-08-31T00:31:41;12.10;99.90
20560;DHT22;10438;51.454;6.718;2023-08-31T00:34:10;12.00;99.90
20560;DHT22;10438;51.454;6.718;2023-08-31T00:36:36;12.00;99.90
20560;DHT22;10438;51.454;6.718;2023-08-31T00:39:04;12.00;99.90
20560;DHT22;10438;51.454;6.718;2023-08-31T00:41:35;12.00;99.90
20560;DHT22;10438;51.454;6.718;2023-08-31T00:44:02;11.90;99.90
20560;DHT22;10438;51.454;6.718;2023-08-31T00:46:31;11.90;99.90
20560;DHT22;10438;51.454;6.718;2023-08-31T00:48:57;11.80;99.90
20560;DHT22;10438;51.454;6.718;2023-08-31T00:51:23;11.80;99.90
20560;DHT22;10438;51.454;6.718;2023-08-31T00:53:52;11.80;99.90
20560;DHT22;10438;51.454;6.718;2023-08-31T00:56:24;11.80;99.90
20560;DHT22;10438;51.454;6.718;2023-08-31T00:58:50;11.80;99.90
20560;DHT22;10438;51.454;6.718;2023-08-31T01:01:25;11.70;99.90
20560;DHT22;10438;51.454;6.718;2023-08-31T01:04:19;11.70;99.90
20560;DHT22;10438;51.454;6.718;2023-08-31T01:07:24;11.70;99.90
20560;DHT22;10438;51.454;6.718;2023-08-31T01:12:40;11.70;99.90
20560;DHT22;10438;51.454;6.718;2023-08-31T01:15:13;11.70;99.90
20560;DHT22;10438;51.454;6.718;2023-08-31T01:17:46;11.70;99.90
20560;DHT22;10438;51.454;6.718;2023-08-31T01:20:15;11.70;99.90
20560;DHT22;10438;51.454;6.718;2023-08-31T01:23:01;11.70;99.90
20560;DHT22;10438;51.454;6.718;2023-08-31T01:25:29;11.70;99.90
20560;DHT22;10438;51.454;6.718;2023-08-31T01:27:56;11.70;99.90
20560;DHT22;10438;51.454;6.718;2023-08-31T01:30:22;11.70;99.90
20560;DHT22;10438;51.454;6.718;2023-08-31T01:32:47;11.70;99.90
20560;DHT22;10438;51.454;6.718;2023-08-31T01:35:16;11.70;99.90
20560;DHT22;10438;51.454;6.718;2023-08-31T01:37:44;11.60;99.90
20560;DHT22;10438;51.454;6.718;2023-08-31T01:40:34;11.60;99.90
20560;DHT22;10438;51.454;6.718;2023-08-31T01:43:01;11.50;99.90
20560;DHT22;10438;51.454;6.718;2023-08-31T01:45:30;11.50;99.90
20560;DHT22;10438;51.454;6.718;2023-08-31T01:47:56;11.50;99.90
20560;DHT22;10438;51.454;6.718;2023-08-31T01:50:23;11.50;99.90
20560;DHT22;10438;51.454;6.718;2023-08-31T01:52:48;11.50;99.90
20560;DHT22;10438;51.454;6.718;2023-08-31T01:55:14;11.50;99.90
20560;DHT22;10438;51.454;6.718;2023-08-31T01:57:41;11.50;99.90
20560;DHT22;10438;51.454;6.718;2023-08-31T02:00:09;11.40;99.90
20560;DHT22;10438;51.454;6.718;2023-08-31T02:02:35;11.40;99.90
20560;DHT22;10438;51.454;6.718;2023-08-31T02:05:01;11.40;99.90
20560;DHT22;10438;51.454;6.718;2023-08-31T02:07:28;11.40;99.90
20560;DHT22;10438;51.454;6.718;2023-08-31T02:09:53;11.40;99.90
20560;DHT22;10438;51.454;6.718;2023-08-31T02:12:19;11.40;99.90
20560;DHT22;10438;51.454;6.718;2023-08-31T02:14:44;11.40;99.90
20560;DHT22;10438;51.454;6.718;2023-08-31T02:17:10;11.40;99.90
20560;DHT22;10438;51.454;6.718;2023-08-31T02:19:35;11.40;99.90
20560;DHT22;10438;51.454;6.718;2023-08-31T02:22:01;11.40;99.90
20560;DHT22;10438;51.454;6.718;2023-08-31T02:24:26;11.40;99.90
20560;DHT22;10438;51.454;6.718;2023-08-31T02:26:52;11.40;99.90
20560;DHT22;10438;51.454;6.718;2023-08-31T02:29:17;11.40;99.90
20560;DHT22;10438;51.454;6.718;2023-08-31T02:31:43;11.40;99.90
20560;DHT22;10438;51.454;6.718;2023-08-31T02:34:10;11.40;99.90
20560;DHT22;10438;51.454;6.718;2023-08-31T02:36:36;11.30;99.90
20560;DHT22;10438;51.454;6.718;2023-08-31T02:39:01;11.30;99.90
20560;DHT22;10438;51.454;6.718;2023-08-31T02:41:29;11.30;99.90
20560;DHT22;10438;51.454;6.718;2023-08-31T02:43:54;11.30;99.90
20560;DHT22;10438;51.454;6.718;2023-08-31T02:46:20;11.30;99.90
20560;DHT22;10438;51.454;6.718;2023-08-31T02:48:46;11.30;99.90
20560;DHT22;10438;51.454;6.718;2023-08-31T02:51:11;11.20;99.90
20560;DHT22;10438;51.454;6.718;2023-08-31T02:53:37;11.30;99.90
20560;DHT22;10438;51.454;6.718;2023-08-31T02:56:03;11.20;99.90
20560;DHT22;10438;51.454;6.718;2023-08-31T02:58:29;11.20;99.90
20560;DHT22;10438;51.454;6.718;2023-08-31T03:00:54;11.20;99.90
20560;DHT22;10438;51.454;6.718;2023-08-31T03:03:21;11.20;99.90
20560;DHT22;10438;51.454;6.718;2023-08-31T03:05:47;11.20;99.90
20560;DHT22;10438;51.454;6.718;2023-08-31T03:08:12;11.20;99.90
20560;DHT22;10438;51.454;6.718;2023-08-31T03:10:38;11.20;99.90
20560;DHT22;10438;51.454;6.718;2023-08-31T03:13:04;11.10;99.90
20560;DHT22;10438;51.454;6.718;2023-08-31T03:15:32;11.10;99.90
20560;DHT22;10438;51.454;6.718;2023-08-31T03:17:59;11.10;99.90
20560;DHT22;10438;51.454;6.718;2023-08-31T03:20:25;11.10;99.90
20560;DHT22;10438;51.454;6.718;2023-08-31T03:22:50;11.10;99.90
20560;DHT22;10438;51.454;6.718;2023-08-31T03:25:16;11.10;99.90
20560;DHT22;10438;51.454;6.718;2023-08-31T03:27:41;11.10;99.90
20560;DHT22;10438;51.454;6.718;2023-08-31T03:30:08;11.10;99.90
20560;DHT22;10438;51.454;6.718;2023-08-31T03:32:34;11.10;99.90
20560;DHT22;10438;51.454;6.718;2023-08-31T03:35:01;11.10;99.90
20560;DHT22;10438;51.454;6.718;2023-08-31T03:37:26;11.10;99.90
20560;DHT22;10438;51.454;6.718;2023-08-31T03:39:52;11.10;99.90
20560;DHT22;10438;51.454;6.718;2023-08-31T03:42:18;11.10;99.90
20560;DHT22;10438;51.454;6.718;2023-08-31T03:44:43;11.10;99.90
20560;DHT22;10438;51.454;6.718;2023-08-31T03:47:09;11.20;99.90
20560;DHT22;10438;51.454;6.718;2023-08-31T03:49:34;11.20;99.90
20560;DHT22;10438;51.454;6.718;2023-08-31T03:52:00;11.20;99.90
20560;DHT22;10438;51.454;6.718;2023-08-31T03:54:26;11.10;99.90
20560;DHT22;10438;51.454;6.718;2023-08-31T03:56:51;11.20;99.90
20560;DHT22;10438;51.454;6.718;2023-08-31T03:59:17;11.20;99.90
20560;DHT22;10438;51.454;6.718;2023-08-31T04:01:43;11.20;99.90
20560;DHT22;10438;51.454;6.718;2023-08-31T04:04:09;11.20;99.90
20560;DHT22;10438;51.454;6.718;2023-08-31T04:06:34;11.20;99.90
20560;DHT22;10438;51.454;6.718;2023-08-31T04:09:00;11.20;99.90
20560;DHT22;10438;51.454;6.718;2023-08-31T04:11:25;11.10;99.90
20560;DHT22;10438;51.454;6.718;2023-08-31T04:13:54;11.20;99.90
20560;DHT22;10438;51.454;6.718;2023-08-31T04:16:19;11.10;99.90
20560;DHT22;10438;51.454;6.718;2023-08-31T04:18:45;11.20;99.90
20560;DHT22;10438;51.454;6.718;2023-08-31T04:21:17;11.10;99.90
20560;DHT22;10438;51.454;6.718;2023-08-31T04:23:42;11.10;99.90
20560;DHT22;10438;51.454;6.718;2023-08-31T04:26:12;11.20;99.90
20560;DHT22;10438;51.454;6.718;2023-08-31T04:28:41;11.20;99.90
20560;DHT22;10438;51.454;6.718;2023-08-31T04:31:07;11.20;99.90
20560;DHT22;10438;51.454;6.718;2023-08-31T04:33:38;11.20;99.90
20560;DHT22;10438;51.454;6.718;2023-08-31T04:36:04;11.20;99.90
20560;DHT22;10438;51.454;6.718;2023-08-31T04:38:31;11.20;99.90
20560;DHT22;10438;51.454;6.718;2023-08-31T04:41:00;11.20;99.90
20560;DHT22;10438;51.454;6.718;2023-08-31T04:43:26;11.30;99.90
20560;DHT22;10438;51.454;6.718;2023-08-31T04:45:53;11.20;99.90
20560;DHT22;10438;51.454;6.718;2023-08-31T04:48:18;11.20;99.90
20560;DHT22;10438;51.454;6.718;2023-08-31T04:50:44;11.20;99.90
20560;DHT22;10438;51.454;6.718;2023-08-31T04:53:10;11.20;99.90
20560;DHT22;10438;51.454;6.718;2023-08-31T04:55:38;11.20;99.90
20560;DHT22;10438;51.454;6.718;2023-08-31T04:58:04;11.20;99.90
20560;DHT22;10438;51.454;6.718;2023-08-31T05:00:30;11.20;99.90
20560;DHT22;10438;51.454;6.718;2023-08-31T05:02:56;11.20;99.90
20560;DHT22;10438;51.454;6.718;2023-08-31T05:05:21;11.20;99.90
20560;DHT22;10438;51.454;6.718;2023-08-31T05:07:47;11.20;99.90
20560;DHT22;10438;51.454;6.718;2023-08-31T05:10:13;11.20;99.90
20560;DHT22;10438;51.454;6.718;2023-08-31T05:12:38;11.20;99.90
20560;DHT22;10438;51.454;6.718;2023-08-31T05:15:04;11.20;99.90
20560;DHT22;10438;51.454;6.718;2023-08-31T05:17:30;11.20;99.90
20560;DHT22;10438;51.454;6.718;2023-08-31T05:19:56;11.20;99.90
20560;DHT22;10438;51.454;6.718;2023-08-31T05:22:22;11.20;99.90
20560;DHT22;10438;51.454;6.718;2023-08-31T05:24:47;11.30;99.90
20560;DHT22;10438;51.454;6.718;2023-08-31T05:27:13;11.30;99.90
20560;DHT22;10438;51.454;6.718;2023-08-31T05:29:38;11.30;99.90
20560;DHT22;10438;51.454;6.718;2023-08-31T05:32:04;11.30;99.90
20560;DHT22;10438;51.454;6.718;2023-08-31T05:34:30;11.30;99.90
20560;DHT22;10438;51.454;6.718;2023-08-31T05:36:57;11.30;99.90
20560;DHT22;10438;51.454;6.718;2023-08-31T05:39:23;11.40;99.90
20560;DHT22;10438;51.454;6.718;2023-08-31T05:41:49;11.40;99.90
20560;DHT22;10438;51.454;6.718;2023-08-31T05:44:14;11.40;99.90
20560;DHT22;10438;51.454;6.718;2023-08-31T05:46:40;11.40;99.90
20560;DHT22;10438;51.454;6.718;2023-08-31T05:49:06;11.40;99.90
20560;DHT22;10438;51.454;6.718;2023-08-31T05:51:33;11.40;99.90
20560;DHT22;10438;51.454;6.718;2023-08-31T05:53:58;11.40;99.90
20560;DHT22;10438;51.454;6.718;2023-08-31T05:56:24;11.40;99.90
20560;DHT22;10438;51.454;6.718;2023-08-31T05:58:49;11.40;99.90
20560;DHT22;10438;51.454;6.718;2023-08-31T06:01:15;11.40;99.90
20560;DHT22;10438;51.454;6.718;2023-08-31T06:03:41;11.40;99.90
20560;DHT22;10438;51.454;6.718;2023-08-31T06:06:07;11.40;99.90
20560;DHT22;10438;51.454;6.718;2023-08-31T06:08:32;11.40;99.90
20560;DHT22;10438;51.454;6.718;2023-08-31T06:10:58;11.50;99.90
20560;DHT22;10438;51.454;6.718;2023-08-31T06:13:24;11.50;99.90
20560;DHT22;10438;51.454;6.718;2023-08-31T06:15:49;11.60;99.90
20560;DHT22;10438;51.454;6.718;2023-08-31T06:18:15;11.60;99.90
20560;DHT22;10438;51.454;6.718;2023-08-31T06:20:40;11.70;99.90
20560;DHT22;10438;51.454;6.718;2023-08-31T06:23:06;11.70;99.90
20560;DHT22;10438;51.454;6.718;2023-08-31T06:25:32;11.80;99.90
20560;DHT22;10438;51.454;6.718;2023-08-31T06:27:57;11.80;99.90
20560;DHT22;10438;51.454;6.718;2023-08-31T06:30:23;11.90;99.90
20560;DHT22;10438;51.454;6.718;2023-08-31T06:32:50;11.90;99.90
20560;DHT22;10438;51.454;6.718;2023-08-31T06:35:16;12.00;99.90
20560;DHT22;10438;51.454;6.718;2023-08-31T06:37:42;12.00;99.90
20560;DHT22;10438;51.454;6.718;2023-08-31T06:40:09;12.10;99.90
20560;DHT22;10438;51.454;6.718;2023-08-31T06:42:38;12.10;99.90
20560;DHT22;10438;51.454;6.718;2023-08-31T06:45:05;12.20;99.90
20560;DHT22;10438;51.454;6.718;2023-08-31T06:47:31;12.30;99.90
20560;DHT22;10438;51.454;6.718;2023-08-31T06:49:57;12.40;99.90
20560;DHT22;10438;51.454;6.718;2023-08-31T06:52:23;12.50;99.90
20560;DHT22;10438;51.454;6.718;2023-08-31T06:54:49;12.60;99.90
20560;DHT22;10438;51.454;6.718;2023-08-31T06:57:15;12.70;99.90
20560;DHT22;10438;51.454;6.718;2023-08-31T06:59:40;12.80;99.90
20560;DHT22;10438;51.454;6.718;2023-08-31T07:02:06;12.90;99.90
20560;DHT22;10438;51.454;6.718;2023-08-31T07:04:31;13.00;99.90
20560;DHT22;10438;51.454;6.718;2023-08-31T07:06:57;13.20;99.90
20560;DHT22;10438;51.454;6.718;2023-08-31T07:09:22;13.30;99.90
20560;DHT22;10438;51.454;6.718;2023-08-31T07:11:48;13.30;99.90
20560;DHT22;10438;51.454;6.718;2023-08-31T07:14:13;13.40;99.90
20560;DHT22;10438;51.454;6.718;2023-08-31T07:16:39;13.40;99.90
20560;DHT22;10438;51.454;6.718;2023-08-31T07:19:04;13.40;99.90
20560;DHT22;10438;51.454;6.718;2023-08-31T07:21:30;13.40;99.90
20560;DHT22;10438;51.454;6.718;2023-08-31T07:23:55;13.40;99.90
20560;DHT22;10438;51.454;6.718;2023-08-31T07:26:21;13.60;99.90
20560;DHT22;10438;51.454;6.718;2023-08-31T07:28:47;13.70;99.90
20560;DHT22;10438;51.454;6.718;2023-08-31T07:31:13;13.80;99.90
20560;DHT22;10438;51.454;6.718;2023-08-31T07:33:38;14.00;99.90
20560;DHT22;10438;51.454;6.718;2023-08-31T07:36:05;14.00;99.90
20560;DHT22;10438;51.454;6.718;2023-08-31T07:38:31;14.20;99.90
20560;DHT22;10438;51.454;6.718;2023-08-31T07:40:57;14.30;99.90
20560;DHT22;10438;51.454;6.718;2023-08-31T07:43:23;14.40;99.90
20560;DHT22;10438;51.454;6.718;2023-08-31T07:45:50;14.50;99.90
20560;DHT22;10438;51.454;6.718;2023-08-31T07:48:15;14.50;99.90
20560;DHT22;10438;51.454;6.718;2023-08-31T07:50:41;14.60;99.90
20560;DHT22;10438;51.454;6.718;2023-08-31T07:53:08;14.70;99.90
20560;DHT22;10438;51.454;6.718;2023-08-31T07:55:33;14.80;99.90
20560;DHT22;10438;51.454;6.718;2023-08-31T07:58:00;14.90;99.90
20560;DHT22;10438;51.454;6.718;2023-08-31T08:00:26;15.10;99.90
20560;DHT22;10438;51.454;6.718;2023-08-31T08:02:52;15.20;99.90
20560;DHT22;10438;51.454;6.718;2023-08-31T08:05:17;15.30;99.90
20560;DHT22;10438;51.454;6.718;2023-08-31T08:07:43;15.60;99.90
20560;DHT22;10438;51.454;6.718;2023-08-31T08:10:09;15.80;99.90
20560;DHT22;10438;51.454;6.718;2023-08-31T08:12:39;15.80;99.90
20560;DHT22;10438;51.454;6.718;2023-08-31T08:15:05;15.90;99.90
20560;DHT22;10438;51.454;6.718;2023-08-31T08:17:32;15.90;99.90
20560;DHT22;10438;51.454;6.718;2023-08-31T08:19:57;16.10;99.90
20560;DHT22;10438;51.454;6.718;2023-08-31T08:22:24;16.20;99.90
20560;DHT22;10438;51.454;6.718;2023-08-31T08:24:50;16.30;99.90
20560;DHT22;10438;51.454;6.718;2023-08-31T08:27:16;16.30;99.90
20560;DHT22;10438;51.454;6.718;2023-08-31T08:29:43;16.40;99.90
20560;DHT22;10438;51.454;6.718;2023-08-31T08:32:08;16.60;99.90
20560;DHT22;10438;51.454;6.718;2023-08-31T08:34:34;16.70;99.90
20560;DHT22;10438;51.454;6.718;2023-08-31T08:37:00;16.70;99.90
20560;DHT22;10438;51.454;6.718;2023-08-31T08:39:25;16.70;99.90
20560;DHT22;10438;51.454;6.718;2023-08-31T08:41:53;16.90;99.90
20560;DHT22;10438;51.454;6.718;2023-08-31T08:44:22;17.00;99.90
20560;DHT22;10438;51.454;6.718;2023-08-31T08:46:51;17.10;99.90
20560;DHT22;10438;51.454;6.718;2023-08-31T08:49:18;17.00;99.90
20560;DHT22;10438;51.454;6.718;2023-08-31T08:51:45;17.00;99.90
20560;DHT22;10438;51.454;6.718;2023-08-31T08:54:12;17.00;99.90
20560;DHT22;10438;51.454;6.718;2023-08-31T08:56:38;17.20;99.90
20560;DHT22;10438;51.454;6.718;2023-08-31T08:59:05;17.40;99.90
20560;DHT22;10438;51.454;6.718;2023-08-31T09:01:32;17.50;99.90
20560;DHT22;10438;51.454;6.718;2023-08-31T09:03:58;17.70;99.90
20560;DHT22;10438;51.454;6.718;2023-08-31T09:06:24;17.60;99.90
20560;DHT22;10438;51.454;6.718;2023-08-31T09:08:54;17.90;99.90
20560;DHT22;10438;51.454;6.718;2023-08-31T09:11:23;18.00;99.90
20560;DHT22;10438;51.454;6.718;2023-08-31T09:13:50;18.20;99.90
20560;DHT22;10438;51.454;6.718;2023-08-31T09:16:34;18.20;99.90
20560;DHT22;10438;51.454;6.718;2023-08-31T09:18:59;18.30;99.90
20560;DHT22;10438;51.454;6.718;2023-08-31T09:21:38;18.10;99.90
20560;DHT22;10438;51.454;6.718;2023-08-31T09:24:06;17.90;99.90
20560;DHT22;10438;51.454;6.718;2023-08-31T09:26:38;18.10;99.90
20560;DHT22;10438;51.454;6.718;2023-08-31T09:29:07;18.10;99.90
20560;DHT22;10438;51.454;6.718;2023-08-31T09:31:33;18.30;99.90
20560;DHT22;10438;51.454;6.718;2023-08-31T09:33:58;18.40;99.90
20560;DHT22;10438;51.454;6.718;2023-08-31T09:36:24;18.30;99.90
20560;DHT22;10438;51.454;6.718;2023-08-31T09:38:49;18.30;99.90
20560;DHT22;10438;51.454;6.718;2023-08-31T09:41:15;18.20;99.90
20560;DHT22;10438;51.454;6.718;2023-08-31T09:43:42;18.20;99.90
20560;DHT22;10438;51.454;6.718;2023-08-31T09:46:09;18.30;99.90
20560;DHT22;10438;51.454;6.718;2023-08-31T09:48:35;18.40;99.90
20560;DHT22;10438;51.454;6.718;2023-08-31T09:51:04;18.60;99.90
20560;DHT22;10438;51.454;6.718;2023-08-31T09:53:31;19.00;99.90
20560;DHT22;10438;51.454;6.718;2023-08-31T09:55:57;18.90;99.90
20560;DHT22;10438;51.454;6.718;2023-08-31T09:58:23;18.90;99.90
20560;DHT22;10438;51.454;6.718;2023-08-31T10:00:50;18.70;99.90
20560;DHT22;10438;51.454;6.718;2023-08-31T10:03:16;18.60;99.90
20560;DHT22;10438;51.454;6.718;2023-08-31T10:05:47;18.70;99.90
20560;DHT22;10438;51.454;6.718;2023-08-31T10:08:14;18.60;99.90
20560;DHT22;10438;51.454;6.718;2023-08-31T10:10:40;18.60;99.90
20560;DHT22;10438;51.454;6.718;2023-08-31T10:13:06;18.50;99.90
20560;DHT22;10438;51.454;6.718;2023-08-31T10:15:33;18.40;99.90
20560;DHT22;10438;51.454;6.718;2023-08-31T10:18:04;18.30;99.90
20560;DHT22;10438;51.454;6.718;2023-08-31T10:20:30;18.10;99.90
20560;DHT22;10438;51.454;6.718;2023-08-31T10:23:08;18.10;99.90
20560;DHT22;10438;51.454;6.718;2023-08-31T10:25:59;18.10;99.90
20560;DHT22;10438;51.454;6.718;2023-08-31T10:28:26;18.60;99.90
20560;DHT22;10438;51.454;6.718;2023-08-31T10:31:08;18.90;99.90
20560;DHT22;10438;51.454;6.718;2023-08-31T10:33:41;19.20;99.90
20560;DHT22;10438;51.454;6.718;2023-08-31T10:36:18;19.50;99.90
20560;DHT22;10438;51.454;6.718;2023-08-31T10:39:00;19.50;99.90
20560;DHT22;10438;51.454;6.718;2023-08-31T10:41:33;19.80;99.90
20560;DHT22;10438;51.454;6.718;2023-08-31T10:43:59;19.80;99.90
20560;DHT22;10438;51.454;6.718;2023-08-31T10:46:35;20.10;99.90
20560;DHT22;10438;51.454;6.718;2023-08-31T10:51:35;19.50;99.90
20560;DHT22;10438;51.454;6.718;2023-08-31T10:54:26;19.70;99.90
20560;DHT22;10438;51.454;6.718;2023-08-31T10:59:53;20.60;99.90
20560;DHT22;10438;51.454;6.718;2023-08-31T11:02:41;20.60;99.90
20560;DHT22;10438;51.454;6.718;2023-08-31T11:07:43;19.70;99.90
20560;DHT22;10438;51.454;6.718;2023-08-31T11:10:18;19.40;99.90
20560;DHT22;10438;51.454;6.718;2023-08-31T11:12:47;19.10;99.90
20560;DHT22;10438;51.454;6.718;2023-08-31T11:15:14;19.10;99.90
20560;DHT22;10438;51.454;6.718;2023-08-31T11:17:41;19.30;99.90
20560;DHT22;10438;51.454;6.718;2023-08-31T11:20:09;19.70;99.90
20560;DHT22;10438;51.454;6.718;2023-08-31T11:22:38;20.20;99.90
20560;DHT22;10438;51.454;6.718;2023-08-31T11:25:05;20.80;99.90
20560;DHT22;10438;51.454;6.718;2023-08-31T11:27:31;21.10;99.90
20560;DHT22;10438;51.454;6.718;2023-08-31T11:29:56;21.60;99.90
20560;DHT22;10438;51.454;6.718;2023-08-31T11:32:25;21.40;99.90
20560;DHT22;10438;51.454;6.718;2023-08-31T11:34:51;21.10;99.90
20560;DHT22;10438;51.454;6.718;2023-08-31T11:37:16;20.80;99.90
20560;DHT22;10438;51.454;6.718;2023-08-31T11:39:54;20.60;99.90
20560;DHT22;10438;51.454;6.718;2023-08-31T11:42:21;20.80;99.90
20560;DHT22;10438;51.454;6.718;2023-08-31T11:44:48;21.20;99.90
20560;DHT22;10438;51.454;6.718;2023-08-31T11:47:15;21.60;99.90
20560;DHT22;10438;51.454;6.718;2023-08-31T11:49:41;22.00;99.90
20560;DHT22;10438;51.454;6.718;2023-08-31T11:52:09;22.10;99.90
20560;DHT22;10438;51.454;6.718;2023-08-31T11:54:41;21.60;99.90
20560;DHT22;10438;51.454;6.718;2023-08-31T11:57:07;21.50;99.90
20560;DHT22;10438;51.454;6.718;2023-08-31T11:59:38;21.70;99.90
20560;DHT22;10438;51.454;6.718;2023-08-31T12:02:08;22.00;99.90
20560;DHT22;10438;51.454;6.718;2023-08-31T12:04:42;21.80;99.90
20560;DHT22;10438;51.454;6.718;2023-08-31T12:07:11;21.80;99.90
20560;DHT22;10438;51.454;6.718;2023-08-31T12:09:37;21.80;99.90
20560;DHT22;10438;51.454;6.718;2023-08-31T12:12:02;22.00;99.90
20560;DHT22;10438;51.454;6.718;2023-08-31T12:14:30;21.70;99.90
20560;DHT22;10438;51.454;6.718;2023-08-31T12:17:05;21.50;99.90
20560;DHT22;10438;51.454;6.718;2023-08-31T12:19:31;21.50;99.90
20560;DHT22;10438;51.454;6.718;2023-08-31T12:21:57;21.40;99.90
20560;DHT22;10438;51.454;6.718;2023-08-31T12:24:22;21.20;99.90
20560;DHT22;10438;51.454;6.718;2023-08-31T12:26:49;21.50;99.90
20560;DHT22;10438;51.454;6.718;2023-08-31T12:29:16;21.40;99.90
20560;DHT22;10438;51.454;6.718;2023-08-31T12:31:41;21.40;99.90
20560;DHT22;10438;51.454;6.718;2023-08-31T12:34:08;21.50;99.90
20560;DHT22;10438;51.454;6.718;2023-08-31T12:36:34;21.60;99.90
20560;DHT22;10438;51.454;6.718;2023-08-31T12:39:02;22.00;99.90
20560;DHT22;10438;51.454;6.718;2023-08-31T12:41:31;21.80;99.90
20560;DHT22;10438;51.454;6.718;2023-08-31T12:43:57;21.70;99.90
20560;DHT22;10438;51.454;6.718;2023-08-31T12:46:23;21.70;99.90
20560;DHT22;10438;51.454;6.718;2023-08-31T12:48:49;21.80;99.90
20560;DHT22;10438;51.454;6.718;2023-08-31T12:51:16;22.00;99.90
20560;DHT22;10438;51.454;6.718;2023-08-31T12:53:41;22.20;99.90
20560;DHT22;10438;51.454;6.718;2023-08-31T12:56:07;22.40;99.90
20560;DHT22;10438;51.454;6.718;2023-08-31T12:58:32;22.20;99.90
20560;DHT22;10438;51.454;6.718;2023-08-31T13:00:58;21.90;99.90
20560;DHT22;10438;51.454;6.718;2023-08-31T13:03:25;21.80;99.90
20560;DHT22;10438;51.454;6.718;2023-08-31T13:05:50;21.60;99.90
20560;DHT22;10438;51.454;6.718;2023-08-31T13:08:16;21.30;99.90
20560;DHT22;10438;51.454;6.718;2023-08-31T13:10:41;21.30;99.90
20560;DHT22;10438;51.454;6.718;2023-08-31T13:13:07;21.70;99.90
20560;DHT22;10438;51.454;6.718;2023-08-31T13:15:33;22.10;99.90
20560;DHT22;10438;51.454;6.718;2023-08-31T13:17:59;22.40;99.90
20560;DHT22;10438;51.454;6.718;2023-08-31T13:20:25;22.60;99.90
20560;DHT22;10438;51.454;6.718;2023-08-31T13:22:52;22.50;99.90
20560;DHT22;10438;51.454;6.718;2023-08-31T13:25:17;22.30;99.90
20560;DHT22;10438;51.454;6.718;2023-08-31T13:27:43;22.00;99.90
20560;DHT22;10438;51.454;6.718;2023-08-31T13:30:10;21.90;99.90
20560;DHT22;10438;51.454;6.718;2023-08-31T13:32:37;21.50;99.90
20560;DHT22;10438;51.454;6.718;2023-08-31T13:35:03;21.20;99.90
20560;DHT22;10438;51.454;6.718;2023-08-31T13:37:33;21.10;99.90
20560;DHT22;10438;51.454;6.718;2023-08-31T13:39:59;20.90;99.90
20560;DHT22;10438;51.454;6.718;2023-08-31T13:42:25;20.70;99.90
20560;DHT22;10438;51.454;6.718;2023-08-31T13:44:51;20.50;99.90
20560;DHT22;10438;51.454;6.718;2023-08-31T13:47:16;20.20;99.90
20560;DHT22;10438;51.454;6.718;2023-08-31T13:49:42;19.90;99.90
20560;DHT22;10438;51.454;6.718;2023-08-31T13:52:07;19.80;99.90
20560;DHT22;10438;51.454;6.718;2023-08-31T13:54:34;19.70;99.90
20560;DHT22;10438;51.454;6.718;2023-08-31T13:57:00;19.60;99.90
20560;DHT22;10438;51.454;6.718;2023-08-31T13:59:26;19.50;99.90
20560;DHT22;10438;51.454;6.718;2023-08-31T14:01:53;19.40;99.90
20560;DHT22;10438;51.454;6.718;2023-08-31T14:04:19;19.40;99.90
20560;DHT22;10438;51.454;6.718;2023-08-31T14:06:44;19.40;99.90
20560;DHT22;10438;51.454;6.718;2023-08-31T14:09:10;19.30;99.90
20560;DHT22;10438;51.454;6.718;2023-08-31T14:11:35;18.70;99.90
20560;DHT22;10438;51.454;6.718;2023-08-31T14:14:03;18.30;99.90
20560;DHT22;10438;51.454;6.718;2023-08-31T14:16:31;17.90;99.90
20560;DHT22;10438;51.454;6.718;2023-08-31T14:18:56;17.50;99.90
20560;DHT22;10438;51.454;6.718;2023-08-31T14:21:22;17.20;99.90
20560;DHT22;10438;51.454;6.718;2023-08-31T14:23:47;16.90;99.90
20560;DHT22;10438;51.454;6.718;2023-08-31T14:26:13;16.70;99.90
20560;DHT22;10438;51.454;6.718;2023-08-31T14:28:38;16.60;99.90
20560;DHT22;10438;51.454;6.718;2023-08-31T14:31:05;16.60;99.90
20560;DHT22;10438;51.454;6.718;2023-08-31T14:33:31;16.50;99.90
20560;DHT22;10438;51.454;6.718;2023-08-31T14:35:56;16.60;99.90
20560;DHT22;10438;51.454;6.718;2023-08-31T14:38:22;16.60;99.90
20560;DHT22;10438;51.454;6.718;2023-08-31T14:40:48;16.60;99.90
20560;DHT22;10438;51.454;6.718;2023-08-31T14:43:14;16.60;99.90
20560;DHT22;10438;51.454;6.718;2023-08-31T14:45:39;16.60;99.90
20560;DHT22;10438;51.454;6.718;2023-08-31T14:48:05;16.60;99.90
20560;DHT22;10438;51.454;6.718;2023-08-31T14:50:31;16.60;99.90
20560;DHT22;10438;51.454;6.718;2023-08-31T14:52:56;16.60;99.90
20560;DHT22;10438;51.454;6.718;2023-08-31T14:55:22;16.50;99.90
20560;DHT22;10438;51.454;6.718;2023-08-31T14:57:47;16.60;99.90
20560;DHT22;10438;51.454;6.718;2023-08-31T15:00:13;16.50;99.90
20560;DHT22;10438;51.454;6.718;2023-08-31T15:02:39;16.50;99.90
20560;DHT22;10438;51.454;6.718;2023-08-31T15:05:05;16.50;99.90
20560;DHT22;10438;51.454;6.718;2023-08-31T15:07:31;16.50;99.90
20560;DHT22;10438;51.454;6.718;2023-08-31T15:09:56;16.50;99.90
20560;DHT22;10438;51.454;6.718;2023-08-31T15:12:22;16.40;99.90
20560;DHT22;10438;51.454;6.718;2023-08-31T15:14:48;16.40;99.90
20560;DHT22;10438;51.454;6.718;2023-08-31T15:17:13;16.40;99.90
20560;DHT22;10438;51.454;6.718;2023-08-31T15:19:39;16.40;99.90
20560;DHT22;10438;51.454;6.718;2023-08-31T15:22:04;16.40;99.90
20560;DHT22;10438;51.454;6.718;2023-08-31T15:24:30;16.40;99.90
20560;DHT22;10438;51.454;6.718;2023-08-31T15:26:55;16.40;99.90
20560;DHT22;10438;51.454;6.718;2023-08-31T15:29:22;16.30;99.90
20560;DHT22;10438;51.454;6.718;2023-08-31T15:31:47;16.30;99.90
20560;DHT22;10438;51.454;6.718;2023-08-31T15:34:13;16.30;99.90
20560;DHT22;10438;51.454;6.718;2023-08-31T15:36:39;16.30;99.90
20560;DHT22;10438;51.454;6.718;2023-08-31T15:39:06;16.40;99.90